Latest Weather Observations for Double Island Point

IDQ60901

Issued at 3:51 pm EST Saturday 28 January 2023 (issued every 10 minutes, with the page automatically refreshed every 10 minutes)

About weather observations | Map of Brisbane area stations | Latest observations for Brisbane area | Other Formats
Station Details ID: 040068 Name: DOUBLE ISLAND POINT LIGHTHOUSE Lat: -25.93 Lon: 153.19 Height: 95.64 m
Data from the previous 72 hours. | See also: Recent months at Double Island Point
Date/Time
EST
Temp
°C
App
Temp
°C
Dew
Point
°C
Rel
Hum
%
Delta-T
°C
Wind Press
QNH
hPa
Press
MSL
hPa
Rain since
9am
mm
Dir  Spd
km/h
Gust
km/h
Spd
kts
Gust
kts
28/03:30pm 27.8 26.8 20.4 64 4.9 ESE 26 32 14 17 1012.2 1011.7 0.0
28/03:00pm 28.5 28.8 22.3 69 4.2 ESE 24 28 13 15 1011.9 1011.4 0.0
28/02:30pm 28.7 28.7 21.7 66 4.7 ESE 24 28 13 15 1012.3 1011.8 0.0
28/02:00pm 28.3 28.0 21.8 68 4.4 ESE 26 32 14 17 1012.7 1012.2 0.0
28/01:30pm 28.5 28.7 22.0 68 4.4 ESE 24 30 13 16 1013.0 1012.5 0.0
28/01:00pm 28.7 29.8 22.4 68 4.3 ESE 20 24 11 13 1013.5 1012.9 0.0
28/12:30pm 28.7 30.7 22.2 68 4.4 E 15 17 8 9 1013.3 1012.8 0.0
28/12:00pm 28.3 30.6 22.1 69 4.2 ESE 13 17 7 9 1013.3 1012.8 0.0
28/11:30am 28.2 30.2 22.2 70 4.1 SE 15 19 8 10 1013.8 1013.2 0.0
28/11:00am 27.7 28.9 21.5 69 4.2 SE 17 20 9 11 1014.1 1013.5 0.0
28/10:30am 28.8 32.4 21.3 64 5.0 NNE 4 9 2 5 1014.4 1013.8 0.0
28/10:00am 28.1 29.8 20.9 65 4.8 E 13 17 7 9 1015.0 1014.4 0.0
28/09:30am 28.3 31.2 21.8 68 4.4 ENE 9 13 5 7 1014.8 1014.2 0.0
28/09:00am 25.1 26.2 20.4 75 3.1 E 15 17 8 9 1015.4 1014.8 1.0
28/08:30am 23.3 25.9 19.2 78 2.6 - 4 13 2 7 1015.0 1014.4 1.0
28/08:00am 24.5 27.7 21.2 82 2.2 N 6 20 3 11 1015.2 1014.6 0.0
28/07:30am 25.8 28.2 23.7 88 1.4 SSE 17 24 9 13 1014.7 1014.1 0.0
28/07:00am 25.0 26.7 23.1 89 1.3 S 19 22 10 12 1014.2 1013.6 0.0
28/06:30am 25.0 27.1 23.1 89 1.3 S 17 20 9 11 1013.8 1013.2 0.0
28/06:00am 25.0 27.0 22.3 85 1.8 S 15 17 8 9 1013.3 1012.8 0.0
28/05:30am 24.9 27.2 22.0 84 1.9 SSE 13 15 7 8 1013.0 1012.5 0.0
28/05:00am 25.0 28.0 21.9 83 2.1 ESE 9 13 5 7 1012.4 1011.9 0.0
28/04:30am 25.0 27.6 21.9 83 2.1 ESE 11 13 6 7 1012.3 1011.8 0.0
28/04:00am 24.9 27.9 22.0 84 1.9 NE 9 15 5 8 1011.9 1011.4 0.0
28/03:30am 24.9 27.4 21.8 83 2.1 NE 11 15 6 8 1011.9 1011.4 0.0
28/03:00am 25.1 27.5 21.6 81 2.3 NE 11 15 6 8 1012.2 1011.7 0.0
28/02:30am 25.3 27.1 21.8 81 2.3 ENE 15 19 8 10 1012.3 1011.8 0.0
28/02:00am 25.4 26.8 21.9 81 2.3 ENE 17 20 9 11 1012.3 1011.8 0.0
28/01:30am 25.5 27.1 22.2 82 2.2 ENE 17 20 9 11 1012.3 1011.8 0.0
28/01:00am 25.5 27.1 22.2 82 2.2 E 17 20 9 11 1013.1 1012.6 0.0
28/12:30am 25.6 27.9 22.7 84 2.0 E 15 19 8 10 1013.2 1012.7 0.0
28/12:00am 25.4 27.8 22.3 83 2.1 ENE 13 17 7 9 1013.3 1012.8 0.0
 
Date/Time
EST
Temp
°C
App
Temp
°C
Dew
Point
°C
Rel
Hum
%
Delta-T
°C
Wind Press
QNH
hPa
Press
MSL
hPa
Rain since
9am
mm
Dir  Spd
km/h
Gust
km/h
Spd
kts
Gust
kts
27/11:30pm 25.3 28.4 22.8 86 1.7 E 11 13 6 7 1013.7 1013.1 0.0
27/11:00pm 25.1 28.1 22.6 86 1.7 E 11 13 6 7 1013.7 1013.1 0.0
27/10:30pm 25.1 28.2 22.8 87 1.6 NE 11 13 6 7 1013.5 1012.9 0.0
27/10:00pm 24.9 28.2 22.6 87 1.6 NNE 9 13 5 7 1013.5 1012.9 0.0
27/09:30pm 25.1 27.0 22.8 87 1.6 NNE 17 19 9 10 1013.0 1012.5 0.0
27/09:00pm 25.1 26.7 22.8 87 1.6 NNE 19 22 10 12 1012.9 1012.4 0.0
27/08:30pm 25.1 27.3 22.6 86 1.7 NNE 15 20 8 11 1012.9 1012.4 0.0
27/08:00pm 25.3 27.1 22.6 85 1.8 NNE 17 20 9 11 1013.0 1012.5 0.0
27/07:30pm 25.5 26.8 22.6 84 2.0 NNE 20 24 11 13 1013.2 1012.7 0.0
27/07:00pm 25.6 27.0 22.9 85 1.8 NNE 20 24 11 13 1013.2 1012.7 0.0
27/06:30pm 25.8 28.3 22.5 82 2.2 N 13 22 7 12 1013.5 1012.9 0.0
27/06:00pm 26.0 27.0 22.9 83 2.1 NNE 22 26 12 14 1013.2 1012.7 0.0
27/05:30pm 26.5 29.5 23.4 83 2.1 NNE 13 19 7 10 1013.2 1012.7 0.0
27/05:00pm 27.1 31.2 23.3 80 2.6 NNE 7 15 4 8 1013.0 1012.5 0.0
27/04:30pm 27.7 32.0 23.3 77 3.0 N 6 7 3 4 1013.1 1012.6 0.0
27/04:00pm 28.5 32.6 23.9 76 3.2 NNE 9 9 5 5 1013.1 1012.6 0.0
27/03:30pm 28.1 32.3 23.5 76 3.2 NNE 7 9 4 5 1013.0 1012.5 0.0
27/03:00pm 28.0 31.8 23.4 76 3.2 NNE 9 13 5 7 1012.7 1012.2 0.0
27/02:30pm 28.2 31.9 23.3 75 3.4 NE 9 13 5 7 1012.6 1012.1 0.0
27/02:00pm 27.5 31.3 22.7 75 3.3 NE 7 13 4 7 1013.2 1012.7 0.0
27/01:30pm 27.5 30.6 22.2 73 3.6 NE 9 11 5 6 1014.0 1013.4 0.0
27/01:00pm 27.9 31.0 22.2 71 3.9 NNE 9 13 5 7 1014.4 1013.8 0.0
27/12:30pm 28.3 31.8 22.1 69 4.2 NE 7 11 4 6 1014.4 1013.8 0.0
27/12:00pm 28.1 31.2 21.4 67 4.5 ENE 7 11 4 6 1014.7 1014.1 0.0
27/11:30am 29.3 32.9 22.3 66 4.8 ENE 7 11 4 6 1015.1 1014.5 0.0
27/11:00am 29.1 32.2 22.1 66 4.7 SW 9 11 5 6 1015.3 1014.7 0.0
27/10:30am 29.0 33.1 23.2 71 4.0 NNW 7 13 4 7 1015.2 1014.6 0.0
27/10:00am 28.3 31.6 22.5 71 3.9 NNW 9 13 5 7 1015.4 1014.8 0.0
27/09:30am 27.8 31.1 22.5 73 3.6 NNW 9 15 5 8 1015.3 1014.7 0.0
27/09:00am 27.1 30.4 22.5 76 3.1 W 9 17 5 9 1015.8 1015.2 0.0
27/08:30am 25.8 29.0 22.3 81 2.4 W 9 11 5 6 1015.8 1015.2 0.0
27/08:00am 25.6 29.2 22.3 82 2.2 WSW 7 13 4 7 1015.8 1015.2 0.0
27/07:30am 25.5 29.3 22.8 85 1.8 NW 7 9 4 5 1015.3 1014.7 0.0
27/07:00am 25.3 30.5 22.8 86 1.7 CALM 0 0 0 0 1015.2 1014.6 0.0
27/06:30am 24.8 28.2 22.7 88 1.4 NW 9 9 5 5 1015.0 1014.4 0.0
27/06:00am 24.3 27.2 22.4 89 1.3 NW 11 13 6 7 1014.7 1014.1 0.0
27/05:30am 24.0 26.7 22.1 89 1.3 NW 11 13 6 7 1014.2 1013.6 0.0
27/05:00am 24.2 27.0 22.3 89 1.3 NW 11 15 6 8 1013.7 1013.1 0.0
27/04:30am 24.3 26.4 22.4 89 1.3 NW 15 19 8 10 1013.5 1012.9 0.0
27/04:00am 24.3 26.9 22.7 91 1.1 WNW 13 17 7 9 1013.2 1012.7 0.0
27/03:30am 24.2 26.4 22.6 91 1.1 NW 15 17 8 9 1012.8 1012.3 0.0
27/03:00am 24.5 27.6 22.8 90 1.1 NW 11 15 6 8 1012.5 1012.0 0.0
27/02:30am 24.6 26.9 22.8 90 1.2 NW 15 20 8 11 1012.5 1012.0 0.0
27/02:00am 25.0 27.0 22.9 88 1.4 NNW 17 22 9 12 1012.7 1012.2 0.0
27/01:30am 25.1 29.1 22.8 87 1.6 N 6 13 3 7 1013.0 1012.5 0.0
27/01:00am 25.2 29.3 22.9 87 1.6 NNE 6 15 3 8 1013.6 1013.0 0.0
27/12:30am 25.2 29.7 22.9 87 1.6 NW 4 9 2 5 1013.5 1012.9 0.0
27/12:00am 25.2 29.5 22.7 86 1.7 N 4 7 2 4 1013.7 1013.1 0.0
 
Date/Time
EST
Temp
°C
App
Temp
°C
Dew
Point
°C
Rel
Hum
%
Delta-T
°C
Wind Press
QNH
hPa
Press
MSL
hPa
Rain since
9am
mm
Dir  Spd
km/h
Gust
km/h
Spd
kts
Gust
kts
26/11:30pm 25.2 28.9 22.5 85 1.8 N 7 17 4 9 1013.9 1013.3 0.0
26/11:00pm 25.3 29.7 22.8 86 1.7 SSW 4 7 2 4 1014.4 1013.8 0.0
26/10:30pm 25.3 29.2 22.6 85 1.8 WSW 6 11 3 6 1014.4 1013.8 0.0
26/10:00pm 25.5 28.2 22.8 85 1.8 NNW 13 24 7 13 1014.1 1013.5 0.0
26/09:30pm 25.6 27.9 22.7 84 2.0 N 15 28 8 15 1014.1 1013.5 0.0
26/09:00pm 25.8 26.7 22.7 83 2.1 N 22 33 12 18 1014.1 1013.5 0.0
26/08:30pm 25.9 26.1 22.8 83 2.1 NNE 26 37 14 20 1013.9 1013.3 0.0
26/08:00pm 26.0 26.8 22.5 81 2.4 N 22 33 12 18 1013.8 1013.2 0.0
26/07:30pm 26.0 26.2 22.7 82 2.2 NNE 26 37 14 20 1013.6 1013.0 0.0
26/07:00pm 26.1 25.1 22.6 81 2.4 NNE 32 39 17 21 1013.2 1012.7 0.0
26/06:30pm 26.3 25.7 22.6 80 2.5 NNE 30 33 16 18 1013.2 1012.7 0.0
26/06:00pm 26.4 26.0 22.3 78 2.8 NNE 28 32 15 17 1013.1 1012.6 0.0
26/05:30pm 27.0 27.5 22.6 77 3.0 NNE 24 30 13 16 1012.8 1012.3 0.0
26/05:00pm 27.2 27.9 22.2 74 3.4 NNE 22 28 12 15 1012.6 1012.1 0.0
26/04:30pm 28.0 29.0 22.2 70 3.9 NNE 20 28 11 15 1012.5 1012.0 0.0
26/04:00pm 28.8 30.7 22.1 67 4.5 NNE 15 24 8 13 1012.5 1012.0 0.0
26/03:30pm 30.2 32.5 22.1 62 5.5 NE 13 20 7 11 1012.7 1012.2 0.0
26/03:00pm 31.7 35.0 23.2 60 5.9 NNE 11 17 6 9 1013.0 1012.5 0.0
26/02:30pm 31.4 33.5 22.4 59 6.2 NNE 15 20 8 11 1013.2 1012.7 0.0
26/02:00pm 31.6 33.1 22.0 56 6.5 NNE 17 22 9 12 1013.5 1012.9 0.0
26/01:30pm 32.2 34.2 22.9 58 6.4 NNE 17 20 9 11 1013.6 1013.0 0.0
26/01:00pm 32.5 35.5 22.6 56 6.8 NNE 11 20 6 11 1013.9 1013.3 0.0
26/12:30pm 32.7 36.4 23.3 57 6.5 NE 9 13 5 7 1014.0 1013.4 0.0
26/12:00pm 32.2 36.3 24.0 62 5.7 NE 9 15 5 8 1014.2 1013.6 0.0
26/11:30am 32.1 36.5 24.4 63 5.4 NE 9 15 5 8 1014.3 1013.7 0.0
26/11:00am 30.9 35.6 25.0 71 4.2 ENE 9 11 5 6 1014.6 1014.0 0.0
26/10:30am 29.8 33.9 23.3 68 4.5 NE 7 11 4 6 1014.7 1014.1 0.0
26/10:00am 30.2 34.0 23.4 67 4.7 ENE 9 11 5 6 1014.9 1014.3 0.0
26/09:30am 29.3 33.3 23.7 72 3.9 NNE 9 11 5 6 1014.8 1014.2 0.0
26/09:00am 28.3 32.5 23.2 74 3.5 NE 6 9 3 5 1015.0 1014.4 0.0
26/08:30am 27.6 32.1 23.0 76 3.1 NNE 4 9 2 5 1014.9 1014.3 0.0
26/08:00am 26.1 29.8 22.2 79 2.6 N 6 7 3 4 1014.8 1014.2 0.0
26/07:30am 25.9 30.5 22.4 81 2.4 N 2 6 1 3 1014.7 1014.1 0.0
26/07:00am 25.8 30.9 22.7 83 2.1 CALM 0 0 0 0 1014.6 1014.0 0.0
26/06:30am 25.4 29.6 23.1 87 1.6 WNW 6 7 3 4 1014.7 1014.1 0.0
26/06:00am 24.7 28.7 23.1 91 1.1 WNW 7 7 4 4 1014.5 1013.9 0.0
26/05:30am 23.7 27.3 22.3 92 0.9 WNW 7 9 4 5 1014.7 1014.1 0.0
26/05:00am 23.7 27.3 22.3 92 0.9 WNW 7 9 4 5 1014.2 1013.6 0.0
26/04:30am 23.9 27.3 22.7 93 0.8 NW 9 11 5 6 1014.0 1013.4 0.0
26/04:00am 23.8 26.5 22.2 91 1.1 NW 11 13 6 7 1013.5 1012.9 0.0
26/03:30am 23.9 28.7 22.2 90 1.1 CALM 0 6 0 3 1013.2 1012.7 0.0
26/03:00am 24.1 27.7 22.4 90 1.1 NW 7 9 4 5 1013.1 1012.6 0.0
26/02:30am 24.2 27.8 22.1 88 1.4 NNW 6 9 3 5 1013.1 1012.6 0.0
26/02:00am 24.3 27.3 22.0 87 1.5 NNW 9 15 5 8 1013.0 1012.5 0.0
26/01:30am 24.4 26.2 21.9 86 1.7 NNW 15 20 8 11 1012.9 1012.4 0.0
26/01:00am 24.4 26.2 21.9 86 1.7 NNW 15 22 8 12 1012.9 1012.4 0.0
26/12:30am 24.6 26.4 21.9 85 1.8 NNW 15 24 8 13 1013.0 1012.5 0.0
26/12:00am 24.8 27.2 22.3 86 1.7 NNW 13 22 7 12 1013.3 1012.8 0.0
 
Date/Time
EST
Temp
°C
App
Temp
°C
Dew
Point
°C
Rel
Hum
%
Delta-T
°C
Wind Press
QNH
hPa
Press
MSL
hPa
Rain since
9am
mm
Dir  Spd
km/h
Gust
km/h
Spd
kts
Gust
kts
25/11:30pm 24.9 27.0 22.4 86 1.7 NNW 15 24 8 13 1013.3 1012.8 0.0
25/11:00pm 24.9 27.8 22.4 86 1.7 N 11 20 6 11 1013.8 1013.2 0.0
25/10:30pm 25.1 28.7 22.4 85 1.8 N 7 11 4 6 1014.0 1013.4 0.0
25/10:00pm 25.4 29.1 22.3 83 2.1 NE 6 11 3 6 1013.9 1013.3 0.0
25/09:30pm 25.3 29.0 22.2 83 2.1 NNE 6 9 3 5 1013.7 1013.1 0.0
25/09:00pm 25.4 28.9 22.1 82 2.2 NNE 7 11 4 6 1013.8 1013.2 0.0
25/08:30pm 25.6 29.2 22.1 81 2.3 NNW 6 9 3 5 1013.7 1013.1 0.0
25/08:00pm 25.7 29.4 22.2 81 2.4 N 6 11 3 6 1013.7 1013.1 0.0
25/07:30pm 25.8 28.6 22.3 81 2.4 NNW 11 24 6 13 1013.0 1012.5 0.0
25/07:00pm 25.9 27.5 22.2 80 2.5 N 17 28 9 15 1012.6 1012.1 0.0
25/06:30pm 26.1 25.6 22.2 79 2.6 NNE 28 33 15 18 1012.2 1011.7 0.0
25/06:00pm 27.1 26.9 22.1 74 3.4 NNE 26 32 14 17 1012.1 1011.6 0.0
25/05:30pm 27.6 27.1 22.1 72 3.7 NNE 28 35 15 19 1011.5 1011.0 0.0
25/05:00pm 27.9 27.5 22.4 72 3.7 NNE 28 33 15 18 1011.1 1010.6 0.0
25/04:30pm 28.6 29.3 22.3 68 4.3 NNE 22 30 12 16 1011.0 1010.5 0.0
25/04:00pm 29.2 30.7 22.7 68 4.4 NNE 19 28 10 15 1011.0 1010.5 0.0

Latest Capital City Observations: Canberra | Sydney | Melbourne | Brisbane | Adelaide | Perth | Hobart | Darwin

Other formats

Comma delimited format used in spreadsheet applications
http://www.bom.gov.au/fwo/IDQ60901/IDQ60901.94584.axf

JavaScript Object Notation format (JSON) in row-major order
http://www.bom.gov.au/fwo/IDQ60901/IDQ60901.94584.json

Data quality

Most of these data are generated automatically and are frequently updated. Quality checks on data are not normally performed. It is possible for incorrect values to appear. Refer to information at About Latest Weather Observations and please check the disclaimer before using these data.